sensor_id;sensor_type;location;lat;lon;timestamp;temperature;humidity
44537;DHT22;30245;51.966;6.292;2024-03-08T00:00:38;9.80;54.10
44537;DHT22;30245;51.966;6.292;2024-03-08T00:03:05;9.80;54.10
44537;DHT22;30245;51.966;6.292;2024-03-08T00:05:31;9.70;54.10
44537;DHT22;30245;51.966;6.292;2024-03-08T00:07:57;9.70;54.10
44537;DHT22;30245;51.966;6.292;2024-03-08T00:10:22;9.70;54.00
44537;DHT22;30245;51.966;6.292;2024-03-08T00:12:48;9.70;54.00
44537;DHT22;30245;51.966;6.292;2024-03-08T00:15:15;9.70;54.00
44537;DHT22;30245;51.966;6.292;2024-03-08T00:17:41;9.70;53.90
44537;DHT22;30245;51.966;6.292;2024-03-08T00:20:07;9.60;53.80
44537;DHT22;30245;51.966;6.292;2024-03-08T00:22:37;9.60;53.80
44537;DHT22;30245;51.966;6.292;2024-03-08T00:25:07;9.60;53.80
44537;DHT22;30245;51.966;6.292;2024-03-08T00:27:36;9.60;53.80
44537;DHT22;30245;51.966;6.292;2024-03-08T00:30:03;9.60;53.70
44537;DHT22;30245;51.966;6.292;2024-03-08T00:32:29;9.60;53.70
44537;DHT22;30245;51.966;6.292;2024-03-08T00:34:54;9.60;53.70
44537;DHT22;30245;51.966;6.292;2024-03-08T00:37:20;9.60;53.70
44537;DHT22;30245;51.966;6.292;2024-03-08T00:39:50;9.60;53.60
44537;DHT22;30245;51.966;6.292;2024-03-08T00:42:16;9.60;53.50
44537;DHT22;30245;51.966;6.292;2024-03-08T00:44:42;9.50;53.50
44537;DHT22;30245;51.966;6.292;2024-03-08T00:47:08;9.60;53.60
44537;DHT22;30245;51.966;6.292;2024-03-08T00:49:34;9.50;53.70
44537;DHT22;30245;51.966;6.292;2024-03-08T00:52:00;9.50;53.50
44537;DHT22;30245;51.966;6.292;2024-03-08T00:54:25;9.50;53.40
44537;DHT22;30245;51.966;6.292;2024-03-08T00:56:51;9.50;53.20
44537;DHT22;30245;51.966;6.292;2024-03-08T00:59:17;9.50;53.00
44537;DHT22;30245;51.966;6.292;2024-03-08T01:01:42;9.50;52.90
44537;DHT22;30245;51.966;6.292;2024-03-08T01:04:09;9.50;52.70
44537;DHT22;30245;51.966;6.292;2024-03-08T01:06:35;9.50;52.60
44537;DHT22;30245;51.966;6.292;2024-03-08T01:09:01;9.50;52.60
44537;DHT22;30245;51.966;6.292;2024-03-08T01:11:26;9.50;52.50
44537;DHT22;30245;51.966;6.292;2024-03-08T01:13:53;9.50;52.60
44537;DHT22;30245;51.966;6.292;2024-03-08T01:16:19;9.40;52.50
44537;DHT22;30245;51.966;6.292;2024-03-08T01:18:46;9.40;52.50
44537;DHT22;30245;51.966;6.292;2024-03-08T01:21:12;9.40;52.60
44537;DHT22;30245;51.966;6.292;2024-03-08T01:23:38;9.40;52.50
44537;DHT22;30245;51.966;6.292;2024-03-08T01:26:04;9.50;52.50
44537;DHT22;30245;51.966;6.292;2024-03-08T01:28:30;9.40;52.30
44537;DHT22;30245;51.966;6.292;2024-03-08T01:30:55;9.40;52.30
44537;DHT22;30245;51.966;6.292;2024-03-08T01:33:25;9.50;52.20
44537;DHT22;30245;51.966;6.292;2024-03-08T01:35:52;9.50;52.00
44537;DHT22;30245;51.966;6.292;2024-03-08T01:38:18;9.40;51.80
44537;DHT22;30245;51.966;6.292;2024-03-08T01:40:44;9.40;51.70
44537;DHT22;30245;51.966;6.292;2024-03-08T01:43:36;9.40;51.60
44537;DHT22;30245;51.966;6.292;2024-03-08T01:46:01;9.40;51.60
44537;DHT22;30245;51.966;6.292;2024-03-08T01:48:31;9.40;51.50
44537;DHT22;30245;51.966;6.292;2024-03-08T01:50:57;9.30;51.50
44537;DHT22;30245;51.966;6.292;2024-03-08T01:53:24;9.30;51.40
44537;DHT22;30245;51.966;6.292;2024-03-08T01:55:50;9.30;51.40
44537;DHT22;30245;51.966;6.292;2024-03-08T01:58:17;9.30;51.40
44537;DHT22;30245;51.966;6.292;2024-03-08T02:00:46;9.20;51.30
44537;DHT22;30245;51.966;6.292;2024-03-08T02:03:16;9.30;51.40
44537;DHT22;30245;51.966;6.292;2024-03-08T02:05:42;9.20;51.30
44537;DHT22;30245;51.966;6.292;2024-03-08T02:08:09;9.20;51.20
44537;DHT22;30245;51.966;6.292;2024-03-08T02:10:40;9.20;51.20
44537;DHT22;30245;51.966;6.292;2024-03-08T02:13:07;9.20;51.20
44537;DHT22;30245;51.966;6.292;2024-03-08T02:15:53;9.20;51.10
44537;DHT22;30245;51.966;6.292;2024-03-08T02:18:19;9.10;51.00
44537;DHT22;30245;51.966;6.292;2024-03-08T02:20:50;9.10;51.00
44537;DHT22;30245;51.966;6.292;2024-03-08T02:23:16;9.00;51.00
44537;DHT22;30245;51.966;6.292;2024-03-08T02:25:42;9.00;51.10
44537;DHT22;30245;51.966;6.292;2024-03-08T02:28:10;9.00;51.00
44537;DHT22;30245;51.966;6.292;2024-03-08T02:30:36;9.00;51.10
44537;DHT22;30245;51.966;6.292;2024-03-08T02:33:02;9.00;51.20
44537;DHT22;30245;51.966;6.292;2024-03-08T02:35:27;9.00;51.10
44537;DHT22;30245;51.966;6.292;2024-03-08T02:37:53;9.00;51.80
44537;DHT22;30245;51.966;6.292;2024-03-08T02:40:18;9.00;51.20
44537;DHT22;30245;51.966;6.292;2024-03-08T02:42:44;9.00;51.10
44537;DHT22;30245;51.966;6.292;2024-03-08T02:45:09;9.00;51.10
44537;DHT22;30245;51.966;6.292;2024-03-08T02:47:35;8.90;51.00
44537;DHT22;30245;51.966;6.292;2024-03-08T02:50:01;9.00;51.00
44537;DHT22;30245;51.966;6.292;2024-03-08T02:52:27;8.90;51.00
44537;DHT22;30245;51.966;6.292;2024-03-08T02:54:52;8.90;51.00
44537;DHT22;30245;51.966;6.292;2024-03-08T02:57:18;8.90;51.00
44537;DHT22;30245;51.966;6.292;2024-03-08T02:59:44;8.90;50.90
44537;DHT22;30245;51.966;6.292;2024-03-08T03:02:11;8.80;50.80
44537;DHT22;30245;51.966;6.292;2024-03-08T03:04:40;8.80;50.80
44537;DHT22;30245;51.966;6.292;2024-03-08T03:07:05;8.80;50.80
44537;DHT22;30245;51.966;6.292;2024-03-08T03:09:31;8.80;50.90
44537;DHT22;30245;51.966;6.292;2024-03-08T03:11:58;8.80;50.90
44537;DHT22;30245;51.966;6.292;2024-03-08T03:14:24;8.80;50.90
44537;DHT22;30245;51.966;6.292;2024-03-08T03:16:49;8.70;50.80
44537;DHT22;30245;51.966;6.292;2024-03-08T03:19:15;8.70;50.80
44537;DHT22;30245;51.966;6.292;2024-03-08T03:21:41;8.70;50.80
44537;DHT22;30245;51.966;6.292;2024-03-08T03:24:08;8.70;50.90
44537;DHT22;30245;51.966;6.292;2024-03-08T03:26:36;8.70;50.90
44537;DHT22;30245;51.966;6.292;2024-03-08T03:29:07;8.70;50.90
44537;DHT22;30245;51.966;6.292;2024-03-08T03:31:35;8.60;50.90
44537;DHT22;30245;51.966;6.292;2024-03-08T03:34:01;8.70;51.00
44537;DHT22;30245;51.966;6.292;2024-03-08T03:36:30;8.70;51.00
44537;DHT22;30245;51.966;6.292;2024-03-08T03:38:56;8.70;51.00
44537;DHT22;30245;51.966;6.292;2024-03-08T03:41:41;8.60;51.00
44537;DHT22;30245;51.966;6.292;2024-03-08T03:44:07;8.60;51.00
44537;DHT22;30245;51.966;6.292;2024-03-08T03:46:33;8.50;51.00
44537;DHT22;30245;51.966;6.292;2024-03-08T03:48:59;8.50;51.00
44537;DHT22;30245;51.966;6.292;2024-03-08T03:51:25;8.50;51.00
44537;DHT22;30245;51.966;6.292;2024-03-08T03:53:51;8.50;51.10
44537;DHT22;30245;51.966;6.292;2024-03-08T03:56:18;8.50;51.10
44537;DHT22;30245;51.966;6.292;2024-03-08T03:58:44;8.50;51.10
44537;DHT22;30245;51.966;6.292;2024-03-08T04:01:09;8.50;51.10
44537;DHT22;30245;51.966;6.292;2024-03-08T04:03:35;8.50;51.10
44537;DHT22;30245;51.966;6.292;2024-03-08T04:06:03;8.50;51.20
44537;DHT22;30245;51.966;6.292;2024-03-08T04:08:30;8.50;51.10
44537;DHT22;30245;51.966;6.292;2024-03-08T04:10:55;8.50;51.10
44537;DHT22;30245;51.966;6.292;2024-03-08T04:13:21;8.50;51.00
44537;DHT22;30245;51.966;6.292;2024-03-08T04:15:46;8.60;51.00
44537;DHT22;30245;51.966;6.292;2024-03-08T04:18:14;8.50;50.90
44537;DHT22;30245;51.966;6.292;2024-03-08T04:20:39;8.60;50.90
44537;DHT22;30245;51.966;6.292;2024-03-08T04:23:05;8.60;51.00
44537;DHT22;30245;51.966;6.292;2024-03-08T04:25:31;8.60;50.80
44537;DHT22;30245;51.966;6.292;2024-03-08T04:27:57;8.60;50.80
44537;DHT22;30245;51.966;6.292;2024-03-08T04:30:23;8.70;50.90
44537;DHT22;30245;51.966;6.292;2024-03-08T04:32:49;8.60;50.80
44537;DHT22;30245;51.966;6.292;2024-03-08T04:35:15;8.60;51.40
44537;DHT22;30245;51.966;6.292;2024-03-08T04:37:40;8.70;50.80
44537;DHT22;30245;51.966;6.292;2024-03-08T04:40:07;8.60;50.70
44537;DHT22;30245;51.966;6.292;2024-03-08T04:42:32;8.60;50.70
44537;DHT22;30245;51.966;6.292;2024-03-08T04:44:58;8.60;50.80
44537;DHT22;30245;51.966;6.292;2024-03-08T04:47:24;8.60;50.80
44537;DHT22;30245;51.966;6.292;2024-03-08T04:49:50;8.60;50.80
44537;DHT22;30245;51.966;6.292;2024-03-08T04:52:16;8.60;50.80
44537;DHT22;30245;51.966;6.292;2024-03-08T04:54:42;8.60;50.70
44537;DHT22;30245;51.966;6.292;2024-03-08T04:57:08;8.60;50.70
44537;DHT22;30245;51.966;6.292;2024-03-08T04:59:34;8.60;50.70
44537;DHT22;30245;51.966;6.292;2024-03-08T05:01:59;8.60;50.70
44537;DHT22;30245;51.966;6.292;2024-03-08T05:04:25;8.60;50.70
44537;DHT22;30245;51.966;6.292;2024-03-08T05:06:50;8.60;50.70
44537;DHT22;30245;51.966;6.292;2024-03-08T05:09:16;8.50;50.70
44537;DHT22;30245;51.966;6.292;2024-03-08T05:11:43;8.50;50.70
44537;DHT22;30245;51.966;6.292;2024-03-08T05:14:10;8.50;50.70
44537;DHT22;30245;51.966;6.292;2024-03-08T05:16:35;8.50;50.80
44537;DHT22;30245;51.966;6.292;2024-03-08T05:19:02;8.60;50.80
44537;DHT22;30245;51.966;6.292;2024-03-08T05:21:27;8.60;50.80
44537;DHT22;30245;51.966;6.292;2024-03-08T05:23:54;8.60;50.80
44537;DHT22;30245;51.966;6.292;2024-03-08T05:26:20;8.60;50.90
44537;DHT22;30245;51.966;6.292;2024-03-08T05:28:45;8.50;50.90
44537;DHT22;30245;51.966;6.292;2024-03-08T05:31:20;8.50;50.80
44537;DHT22;30245;51.966;6.292;2024-03-08T05:33:49;8.50;50.90
44537;DHT22;30245;51.966;6.292;2024-03-08T05:36:15;8.50;50.80
44537;DHT22;30245;51.966;6.292;2024-03-08T05:38:45;8.50;50.80
44537;DHT22;30245;51.966;6.292;2024-03-08T05:41:10;8.50;50.80
44537;DHT22;30245;51.966;6.292;2024-03-08T05:43:40;8.50;50.90
44537;DHT22;30245;51.966;6.292;2024-03-08T05:46:06;8.40;50.90
44537;DHT22;30245;51.966;6.292;2024-03-08T05:48:32;8.50;51.00
44537;DHT22;30245;51.966;6.292;2024-03-08T05:50:59;8.40;51.00
44537;DHT22;30245;51.966;6.292;2024-03-08T05:53:25;8.40;51.10
44537;DHT22;30245;51.966;6.292;2024-03-08T05:55:50;8.40;51.10
44537;DHT22;30245;51.966;6.292;2024-03-08T05:58:16;8.40;51.00
44537;DHT22;30245;51.966;6.292;2024-03-08T06:00:41;8.40;51.00
44537;DHT22;30245;51.966;6.292;2024-03-08T06:03:07;8.40;51.20
44537;DHT22;30245;51.966;6.292;2024-03-08T06:05:33;8.30;51.20
44537;DHT22;30245;51.966;6.292;2024-03-08T06:07:58;8.30;51.10
44537;DHT22;30245;51.966;6.292;2024-03-08T06:10:24;8.30;51.10
44537;DHT22;30245;51.966;6.292;2024-03-08T06:12:50;8.30;51.00
44537;DHT22;30245;51.966;6.292;2024-03-08T06:15:16;8.30;50.90
44537;DHT22;30245;51.966;6.292;2024-03-08T06:17:42;8.30;51.00
44537;DHT22;30245;51.966;6.292;2024-03-08T06:20:08;8.30;50.90
44537;DHT22;30245;51.966;6.292;2024-03-08T06:22:38;8.20;50.90
44537;DHT22;30245;51.966;6.292;2024-03-08T06:25:07;8.20;51.00
44537;DHT22;30245;51.966;6.292;2024-03-08T06:27:33;8.20;51.00
44537;DHT22;30245;51.966;6.292;2024-03-08T06:29:59;8.20;51.00
44537;DHT22;30245;51.966;6.292;2024-03-08T06:32:25;8.20;51.00
44537;DHT22;30245;51.966;6.292;2024-03-08T06:34:51;8.20;51.10
44537;DHT22;30245;51.966;6.292;2024-03-08T06:37:16;8.10;51.10
44537;DHT22;30245;51.966;6.292;2024-03-08T06:39:49;8.20;51.10
44537;DHT22;30245;51.966;6.292;2024-03-08T06:42:16;8.10;51.10
44537;DHT22;30245;51.966;6.292;2024-03-08T06:44:42;8.10;51.10
44537;DHT22;30245;51.966;6.292;2024-03-08T06:47:14;8.10;51.20
44537;DHT22;30245;51.966;6.292;2024-03-08T06:49:44;8.10;51.10
44537;DHT22;30245;51.966;6.292;2024-03-08T06:52:10;8.20;51.20
44537;DHT22;30245;51.966;6.292;2024-03-08T06:54:36;8.20;51.30
44537;DHT22;30245;51.966;6.292;2024-03-08T06:57:05;8.20;51.40
44537;DHT22;30245;51.966;6.292;2024-03-08T06:59:33;8.20;51.30
44537;DHT22;30245;51.966;6.292;2024-03-08T07:02:01;8.20;51.30
44537;DHT22;30245;51.966;6.292;2024-03-08T07:04:27;8.20;51.30
44537;DHT22;30245;51.966;6.292;2024-03-08T07:06:55;8.30;52.00
44537;DHT22;30245;51.966;6.292;2024-03-08T07:09:21;8.30;51.30
44537;DHT22;30245;51.966;6.292;2024-03-08T07:11:46;8.30;51.30
44537;DHT22;30245;51.966;6.292;2024-03-08T07:14:12;8.40;51.30
44537;DHT22;30245;51.966;6.292;2024-03-08T07:16:40;8.40;51.20
44537;DHT22;30245;51.966;6.292;2024-03-08T07:19:07;8.50;51.10
44537;DHT22;30245;51.966;6.292;2024-03-08T07:21:32;8.50;51.00
44537;DHT22;30245;51.966;6.292;2024-03-08T07:23:58;8.50;51.10
44537;DHT22;30245;51.966;6.292;2024-03-08T07:26:26;8.50;51.10
44537;DHT22;30245;51.966;6.292;2024-03-08T07:28:51;8.60;51.10
44537;DHT22;30245;51.966;6.292;2024-03-08T07:31:17;8.60;51.00
44537;DHT22;30245;51.966;6.292;2024-03-08T07:33:52;8.60;51.00
44537;DHT22;30245;51.966;6.292;2024-03-08T07:36:19;8.70;51.10
44537;DHT22;30245;51.966;6.292;2024-03-08T07:38:44;8.80;50.90
44537;DHT22;30245;51.966;6.292;2024-03-08T07:41:12;8.90;50.70
44537;DHT22;30245;51.966;6.292;2024-03-08T07:43:38;8.90;51.00
44537;DHT22;30245;51.966;6.292;2024-03-08T07:46:04;8.90;50.60
44537;DHT22;30245;51.966;6.292;2024-03-08T07:48:29;8.90;50.60
44537;DHT22;30245;51.966;6.292;2024-03-08T07:50:56;9.00;50.70
44537;DHT22;30245;51.966;6.292;2024-03-08T07:53:22;9.10;50.60
44537;DHT22;30245;51.966;6.292;2024-03-08T07:55:49;9.20;50.50
44537;DHT22;30245;51.966;6.292;2024-03-08T07:58:15;9.20;50.40
44537;DHT22;30245;51.966;6.292;2024-03-08T08:00:40;9.30;50.40
44537;DHT22;30245;51.966;6.292;2024-03-08T08:03:08;9.30;50.30
44537;DHT22;30245;51.966;6.292;2024-03-08T08:05:34;9.30;50.30
44537;DHT22;30245;51.966;6.292;2024-03-08T08:08:02;9.40;50.30
44537;DHT22;30245;51.966;6.292;2024-03-08T08:10:31;9.50;50.30
44537;DHT22;30245;51.966;6.292;2024-03-08T08:12:58;9.50;50.10
44537;DHT22;30245;51.966;6.292;2024-03-08T08:15:24;9.60;50.10
44537;DHT22;30245;51.966;6.292;2024-03-08T08:17:49;9.70;50.00
44537;DHT22;30245;51.966;6.292;2024-03-08T08:20:15;9.80;49.90
44537;DHT22;30245;51.966;6.292;2024-03-08T08:22:41;9.90;49.80
44537;DHT22;30245;51.966;6.292;2024-03-08T08:25:07;10.00;49.80
44537;DHT22;30245;51.966;6.292;2024-03-08T08:27:33;10.00;49.60
44537;DHT22;30245;51.966;6.292;2024-03-08T08:29:59;10.10;49.60
44537;DHT22;30245;51.966;6.292;2024-03-08T08:32:25;10.50;49.50
44537;DHT22;30245;51.966;6.292;2024-03-08T08:34:51;11.00;48.90
44537;DHT22;30245;51.966;6.292;2024-03-08T08:37:17;11.50;48.10
44537;DHT22;30245;51.966;6.292;2024-03-08T08:39:43;11.90;46.90
44537;DHT22;30245;51.966;6.292;2024-03-08T08:42:08;12.20;46.10
44537;DHT22;30245;51.966;6.292;2024-03-08T08:44:35;12.30;46.00
44537;DHT22;30245;51.966;6.292;2024-03-08T08:47:01;12.40;45.80
44537;DHT22;30245;51.966;6.292;2024-03-08T08:49:28;12.60;45.70
44537;DHT22;30245;51.966;6.292;2024-03-08T08:51:54;12.90;45.20
44537;DHT22;30245;51.966;6.292;2024-03-08T08:54:19;13.20;45.00
44537;DHT22;30245;51.966;6.292;2024-03-08T08:56:46;13.60;44.50
44537;DHT22;30245;51.966;6.292;2024-03-08T08:59:12;13.90;43.70
44537;DHT22;30245;51.966;6.292;2024-03-08T09:01:42;14.10;43.00
44537;DHT22;30245;51.966;6.292;2024-03-08T09:04:07;14.30;42.50
44537;DHT22;30245;51.966;6.292;2024-03-08T09:06:33;14.50;42.70
44537;DHT22;30245;51.966;6.292;2024-03-08T09:08:59;14.80;42.20
44537;DHT22;30245;51.966;6.292;2024-03-08T09:11:24;15.00;41.80
44537;DHT22;30245;51.966;6.292;2024-03-08T09:13:53;15.20;41.30
44537;DHT22;30245;51.966;6.292;2024-03-08T09:16:18;15.40;40.90
44537;DHT22;30245;51.966;6.292;2024-03-08T09:18:44;15.50;40.70
44537;DHT22;30245;51.966;6.292;2024-03-08T09:21:10;15.70;40.30
44537;DHT22;30245;51.966;6.292;2024-03-08T09:23:36;15.80;40.20
44537;DHT22;30245;51.966;6.292;2024-03-08T09:26:02;16.00;40.00
44537;DHT22;30245;51.966;6.292;2024-03-08T09:28:29;16.20;39.40
44537;DHT22;30245;51.966;6.292;2024-03-08T09:30:55;16.30;39.30
44537;DHT22;30245;51.966;6.292;2024-03-08T09:33:20;16.40;39.10
44537;DHT22;30245;51.966;6.292;2024-03-08T09:35:47;16.60;38.60
44537;DHT22;30245;51.966;6.292;2024-03-08T09:38:14;16.80;38.60
44537;DHT22;30245;51.966;6.292;2024-03-08T09:40:42;17.10;38.10
44537;DHT22;30245;51.966;6.292;2024-03-08T09:43:09;17.20;37.60
44537;DHT22;30245;51.966;6.292;2024-03-08T09:45:37;17.40;37.30
44537;DHT22;30245;51.966;6.292;2024-03-08T09:48:10;17.40;36.90
44537;DHT22;30245;51.966;6.292;2024-03-08T09:50:38;17.50;37.10
44537;DHT22;30245;51.966;6.292;2024-03-08T09:53:03;17.60;36.90
44537;DHT22;30245;51.966;6.292;2024-03-08T09:55:29;17.80;36.40
44537;DHT22;30245;51.966;6.292;2024-03-08T09:58:00;17.90;36.50
44537;DHT22;30245;51.966;6.292;2024-03-08T10:00:53;17.90;36.10
44537;DHT22;30245;51.966;6.292;2024-03-08T10:03:20;18.00;36.20
44537;DHT22;30245;51.966;6.292;2024-03-08T10:05:45;18.10;35.60
44537;DHT22;30245;51.966;6.292;2024-03-08T10:08:12;18.00;35.40
44537;DHT22;30245;51.966;6.292;2024-03-08T10:10:38;18.00;35.70
44537;DHT22;30245;51.966;6.292;2024-03-08T10:13:08;18.00;35.80
44537;DHT22;30245;51.966;6.292;2024-03-08T10:15:34;18.10;36.00
44537;DHT22;30245;51.966;6.292;2024-03-08T10:18:00;18.20;35.60
44537;DHT22;30245;51.966;6.292;2024-03-08T10:20:28;18.20;35.20
44537;DHT22;30245;51.966;6.292;2024-03-08T10:22:59;18.20;35.30
44537;DHT22;30245;51.966;6.292;2024-03-08T10:25:25;18.30;35.60
44537;DHT22;30245;51.966;6.292;2024-03-08T10:27:51;18.50;35.30
44537;DHT22;30245;51.966;6.292;2024-03-08T10:30:17;18.60;35.10
44537;DHT22;30245;51.966;6.292;2024-03-08T10:32:47;18.60;34.80
44537;DHT22;30245;51.966;6.292;2024-03-08T10:35:13;18.60;34.70
44537;DHT22;30245;51.966;6.292;2024-03-08T10:37:48;18.60;34.90
44537;DHT22;30245;51.966;6.292;2024-03-08T10:40:19;18.60;35.10
44537;DHT22;30245;51.966;6.292;2024-03-08T10:42:58;18.80;34.80
44537;DHT22;30245;51.966;6.292;2024-03-08T10:45:37;18.80;34.60
44537;DHT22;30245;51.966;6.292;2024-03-08T10:48:28;18.90;34.60
44537;DHT22;30245;51.966;6.292;2024-03-08T10:50:59;18.90;33.80
44537;DHT22;30245;51.966;6.292;2024-03-08T10:53:28;18.70;33.80
44537;DHT22;30245;51.966;6.292;2024-03-08T10:55:57;18.80;34.40
44537;DHT22;30245;51.966;6.292;2024-03-08T10:58:25;18.90;34.20
44537;DHT22;30245;51.966;6.292;2024-03-08T11:00:55;19.00;34.30
44537;DHT22;30245;51.966;6.292;2024-03-08T11:06:06;19.40;33.80
44537;DHT22;30245;51.966;6.292;2024-03-08T11:08:33;19.40;33.40
44537;DHT22;30245;51.966;6.292;2024-03-08T11:11:01;19.40;33.70
44537;DHT22;30245;51.966;6.292;2024-03-08T11:13:44;19.40;33.80
44537;DHT22;30245;51.966;6.292;2024-03-08T11:16:10;19.40;33.00
44537;DHT22;30245;51.966;6.292;2024-03-08T11:18:37;19.30;32.70
44537;DHT22;30245;51.966;6.292;2024-03-08T11:21:09;19.20;32.70
44537;DHT22;30245;51.966;6.292;2024-03-08T11:23:38;19.10;32.80
44537;DHT22;30245;51.966;6.292;2024-03-08T11:26:24;19.10;33.20
44537;DHT22;30245;51.966;6.292;2024-03-08T11:28:50;19.10;32.80
44537;DHT22;30245;51.966;6.292;2024-03-08T11:33:46;18.80;32.60
44537;DHT22;30245;51.966;6.292;2024-03-08T11:36:23;18.70;32.90
44537;DHT22;30245;51.966;6.292;2024-03-08T11:38:50;18.70;32.90
44537;DHT22;30245;51.966;6.292;2024-03-08T11:41:22;18.60;32.90
44537;DHT22;30245;51.966;6.292;2024-03-08T11:43:49;18.70;33.00
44537;DHT22;30245;51.966;6.292;2024-03-08T11:46:16;18.70;32.90
44537;DHT22;30245;51.966;6.292;2024-03-08T11:48:43;18.80;33.00
44537;DHT22;30245;51.966;6.292;2024-03-08T11:51:13;18.80;32.50
44537;DHT22;30245;51.966;6.292;2024-03-08T11:53:39;18.80;32.20
44537;DHT22;30245;51.966;6.292;2024-03-08T11:56:10;18.80;32.30
44537;DHT22;30245;51.966;6.292;2024-03-08T11:58:37;18.80;32.30
44537;DHT22;30245;51.966;6.292;2024-03-08T12:01:04;18.80;32.20
44537;DHT22;30245;51.966;6.292;2024-03-08T12:03:31;18.70;32.00
44537;DHT22;30245;51.966;6.292;2024-03-08T12:06:00;18.70;32.40
44537;DHT22;30245;51.966;6.292;2024-03-08T12:08:25;18.80;32.60
44537;DHT22;30245;51.966;6.292;2024-03-08T12:10:54;18.90;32.20
44537;DHT22;30245;51.966;6.292;2024-03-08T12:13:28;18.80;32.10
44537;DHT22;30245;51.966;6.292;2024-03-08T12:15:59;18.90;32.40
44537;DHT22;30245;51.966;6.292;2024-03-08T12:18:28;19.00;32.40
44537;DHT22;30245;51.966;6.292;2024-03-08T12:21:10;19.00;32.10
44537;DHT22;30245;51.966;6.292;2024-03-08T12:23:37;19.00;32.00
44537;DHT22;30245;51.966;6.292;2024-03-08T12:26:24;19.00;32.30
44537;DHT22;30245;51.966;6.292;2024-03-08T12:28:51;19.10;32.50
44537;DHT22;30245;51.966;6.292;2024-03-08T12:31:17;19.20;32.30
44537;DHT22;30245;51.966;6.292;2024-03-08T12:33:53;19.30;33.00
44537;DHT22;30245;51.966;6.292;2024-03-08T12:36:20;19.20;32.00
44537;DHT22;30245;51.966;6.292;2024-03-08T12:38:47;19.30;32.20
44537;DHT22;30245;51.966;6.292;2024-03-08T12:41:19;19.20;32.30
44537;DHT22;30245;51.966;6.292;2024-03-08T12:43:46;19.30;32.40
44537;DHT22;30245;51.966;6.292;2024-03-08T12:46:18;19.20;31.80
44537;DHT22;30245;51.966;6.292;2024-03-08T12:48:48;19.10;32.00
44537;DHT22;30245;51.966;6.292;2024-03-08T12:51:14;19.00;32.40
44537;DHT22;30245;51.966;6.292;2024-03-08T12:53:42;19.00;32.40
44537;DHT22;30245;51.966;6.292;2024-03-08T12:56:29;18.90;32.30
44537;DHT22;30245;51.966;6.292;2024-03-08T12:58:56;18.90;32.50
44537;DHT22;30245;51.966;6.292;2024-03-08T13:01:22;18.90;32.20
44537;DHT22;30245;51.966;6.292;2024-03-08T13:03:48;18.80;32.40
44537;DHT22;30245;51.966;6.292;2024-03-08T13:06:15;18.80;32.70
44537;DHT22;30245;51.966;6.292;2024-03-08T13:08:41;18.80;32.60
44537;DHT22;30245;51.966;6.292;2024-03-08T13:11:10;18.70;32.80
44537;DHT22;30245;51.966;6.292;2024-03-08T13:13:39;18.70;33.30
44537;DHT22;30245;51.966;6.292;2024-03-08T13:16:06;18.80;32.70
44537;DHT22;30245;51.966;6.292;2024-03-08T13:18:37;18.80;32.70
44537;DHT22;30245;51.966;6.292;2024-03-08T13:21:03;18.80;32.60
44537;DHT22;30245;51.966;6.292;2024-03-08T13:23:36;18.80;32.50
44537;DHT22;30245;51.966;6.292;2024-03-08T13:26:09;18.90;32.50
44537;DHT22;30245;51.966;6.292;2024-03-08T13:28:37;19.00;32.40
44537;DHT22;30245;51.966;6.292;2024-03-08T13:31:06;19.10;32.40
44537;DHT22;30245;51.966;6.292;2024-03-08T13:33:34;19.10;32.20
44537;DHT22;30245;51.966;6.292;2024-03-08T13:36:02;19.10;32.20
44537;DHT22;30245;51.966;6.292;2024-03-08T13:38:29;19.20;32.20
44537;DHT22;30245;51.966;6.292;2024-03-08T13:40:57;19.30;32.10
44537;DHT22;30245;51.966;6.292;2024-03-08T13:43:23;19.40;31.90
44537;DHT22;30245;51.966;6.292;2024-03-08T13:45:49;19.40;32.00
44537;DHT22;30245;51.966;6.292;2024-03-08T13:48:15;19.40;31.70
44537;DHT22;30245;51.966;6.292;2024-03-08T13:50:41;19.30;31.80
44537;DHT22;30245;51.966;6.292;2024-03-08T13:53:07;19.30;31.90
44537;DHT22;30245;51.966;6.292;2024-03-08T13:55:35;19.30;32.00
44537;DHT22;30245;51.966;6.292;2024-03-08T13:58:01;19.20;31.60
44537;DHT22;30245;51.966;6.292;2024-03-08T14:00:28;19.10;31.90
44537;DHT22;30245;51.966;6.292;2024-03-08T14:02:58;19.20;32.20
44537;DHT22;30245;51.966;6.292;2024-03-08T14:05:24;19.40;32.30
44537;DHT22;30245;51.966;6.292;2024-03-08T14:07:50;19.60;32.00
44537;DHT22;30245;51.966;6.292;2024-03-08T14:10:15;19.60;32.00
44537;DHT22;30245;51.966;6.292;2024-03-08T14:12:42;19.70;31.80
44537;DHT22;30245;51.966;6.292;2024-03-08T14:15:09;19.80;31.60
44537;DHT22;30245;51.966;6.292;2024-03-08T14:17:36;19.90;31.50
44537;DHT22;30245;51.966;6.292;2024-03-08T14:20:03;19.90;31.20
44537;DHT22;30245;51.966;6.292;2024-03-08T14:22:29;19.80;31.30
44537;DHT22;30245;51.966;6.292;2024-03-08T14:24:56;19.80;31.30
44537;DHT22;30245;51.966;6.292;2024-03-08T14:27:22;19.70;31.60
44537;DHT22;30245;51.966;6.292;2024-03-08T14:29:48;19.70;31.50
44537;DHT22;30245;51.966;6.292;2024-03-08T14:32:14;19.60;31.60
44537;DHT22;30245;51.966;6.292;2024-03-08T14:34:39;19.50;31.50
44537;DHT22;30245;51.966;6.292;2024-03-08T14:37:05;19.60;31.80
44537;DHT22;30245;51.966;6.292;2024-03-08T14:39:36;19.50;31.60
44537;DHT22;30245;51.966;6.292;2024-03-08T14:42:02;19.60;31.50
44537;DHT22;30245;51.966;6.292;2024-03-08T14:44:28;19.60;31.60
44537;DHT22;30245;51.966;6.292;2024-03-08T14:46:58;19.60;31.60
44537;DHT22;30245;51.966;6.292;2024-03-08T14:49:25;19.70;31.30
44537;DHT22;30245;51.966;6.292;2024-03-08T14:51:55;19.70;31.50
44537;DHT22;30245;51.966;6.292;2024-03-08T14:54:20;19.80;31.50
44537;DHT22;30245;51.966;6.292;2024-03-08T14:56:48;20.20;31.20
44537;DHT22;30245;51.966;6.292;2024-03-08T14:59:16;20.60;30.80
44537;DHT22;30245;51.966;6.292;2024-03-08T15:01:42;21.00;30.20
44537;DHT22;30245;51.966;6.292;2024-03-08T15:04:09;21.20;29.80
44537;DHT22;30245;51.966;6.292;2024-03-08T15:06:36;21.40;29.80
44537;DHT22;30245;51.966;6.292;2024-03-08T15:09:03;21.60;29.60
44537;DHT22;30245;51.966;6.292;2024-03-08T15:11:45;21.80;29.30
44537;DHT22;30245;51.966;6.292;2024-03-08T15:14:11;21.80;29.20
44537;DHT22;30245;51.966;6.292;2024-03-08T15:16:37;21.90;29.20
44537;DHT22;30245;51.966;6.292;2024-03-08T15:19:05;22.00;29.10
44537;DHT22;30245;51.966;6.292;2024-03-08T15:21:31;21.90;28.60
44537;DHT22;30245;51.966;6.292;2024-03-08T15:23:56;21.70;28.70
44537;DHT22;30245;51.966;6.292;2024-03-08T15:26:22;21.70;28.80
44537;DHT22;30245;51.966;6.292;2024-03-08T15:28:47;21.50;28.70
44537;DHT22;30245;51.966;6.292;2024-03-08T15:31:17;21.40;28.80
44537;DHT22;30245;51.966;6.292;2024-03-08T15:33:42;21.20;28.80
44537;DHT22;30245;51.966;6.292;2024-03-08T15:36:14;21.00;29.10
44537;DHT22;30245;51.966;6.292;2024-03-08T15:38:41;20.70;29.30
44537;DHT22;30245;51.966;6.292;2024-03-08T15:41:09;20.30;29.60
44537;DHT22;30245;51.966;6.292;2024-03-08T15:43:41;20.10;29.90
44537;DHT22;30245;51.966;6.292;2024-03-08T15:46:10;19.80;30.10